sensor_id;sensor_type;location;lat;lon;timestamp;temperature;humidity
70708;SHT30;58277;47.316;18.908;2023-03-01T00:02:04;5.15;65.95
70708;SHT30;58277;47.316;18.908;2023-03-01T00:04:27;5.18;66.08
70708;SHT30;58277;47.316;18.908;2023-03-01T00:06:50;5.30;66.13
70708;SHT30;58277;47.316;18.908;2023-03-01T00:09:13;5.42;65.52
70708;SHT30;58277;47.316;18.908;2023-03-01T00:11:36;5.27;65.69
70708;SHT30;58277;47.316;18.908;2023-03-01T00:14:02;5.08;66.53
70708;SHT30;58277;47.316;18.908;2023-03-01T00:16:35;5.12;66.72
70708;SHT30;58277;47.316;18.908;2023-03-01T00:18:58;5.11;66.71
70708;SHT30;58277;47.316;18.908;2023-03-01T00:21:22;5.08;66.47
70708;SHT30;58277;47.316;18.908;2023-03-01T00:23:45;5.13;66.50
70708;SHT30;58277;47.316;18.908;2023-03-01T00:26:10;5.20;66.18
70708;SHT30;58277;47.316;18.908;2023-03-01T00:28:35;5.39;66.20
70708;SHT30;58277;47.316;18.908;2023-03-01T00:31:05;5.32;66.19
70708;SHT30;58277;47.316;18.908;2023-03-01T00:33:28;5.42;65.76
70708;SHT30;58277;47.316;18.908;2023-03-01T00:35:51;5.44;65.58
70708;SHT30;58277;47.316;18.908;2023-03-01T00:38:14;5.35;66.01
70708;SHT30;58277;47.316;18.908;2023-03-01T00:40:37;5.23;66.05
70708;SHT30;58277;47.316;18.908;2023-03-01T00:42:59;5.15;66.58
70708;SHT30;58277;47.316;18.908;2023-03-01T00:45:23;5.13;66.77
70708;SHT30;58277;47.316;18.908;2023-03-01T00:47:45;5.19;66.65
70708;SHT30;58277;47.316;18.908;2023-03-01T00:50:10;5.12;66.83
70708;SHT30;58277;47.316;18.908;2023-03-01T00:52:34;5.00;67.07
70708;SHT30;58277;47.316;18.908;2023-03-01T00:54:56;5.06;67.10
70708;SHT30;58277;47.316;18.908;2023-03-01T00:57:20;5.12;66.79
70708;SHT30;58277;47.316;18.908;2023-03-01T00:59:42;5.18;66.30
70708;SHT30;58277;47.316;18.908;2023-03-01T01:02:05;5.30;65.99
70708;SHT30;58277;47.316;18.908;2023-03-01T01:04:28;5.23;66.53
70708;SHT30;58277;47.316;18.908;2023-03-01T01:06:51;5.18;66.45
70708;SHT30;58277;47.316;18.908;2023-03-01T01:09:16;5.23;66.66
70708;SHT30;58277;47.316;18.908;2023-03-01T01:11:39;5.22;66.48
70708;SHT30;58277;47.316;18.908;2023-03-01T01:14:02;5.50;65.64
70708;SHT30;58277;47.316;18.908;2023-03-01T01:16:27;5.64;64.98
70708;SHT30;58277;47.316;18.908;2023-03-01T01:18:50;5.78;64.22
70708;SHT30;58277;47.316;18.908;2023-03-01T01:21:16;5.70;64.71
70708;SHT30;58277;47.316;18.908;2023-03-01T01:23:39;5.63;64.57
70708;SHT30;58277;47.316;18.908;2023-03-01T01:26:04;5.53;64.77
70708;SHT30;58277;47.316;18.908;2023-03-01T01:28:27;5.36;65.32
70708;SHT30;58277;47.316;18.908;2023-03-01T01:30:49;5.53;65.05
70708;SHT30;58277;47.316;18.908;2023-03-01T01:33:12;5.35;65.50
70708;SHT30;58277;47.316;18.908;2023-03-01T01:35:35;5.37;65.34
70708;SHT30;58277;47.316;18.908;2023-03-01T01:37:57;5.30;65.97
70708;SHT30;58277;47.316;18.908;2023-03-01T01:40:20;5.16;66.20
70708;SHT30;58277;47.316;18.908;2023-03-01T01:42:43;5.19;65.96
70708;SHT30;58277;47.316;18.908;2023-03-01T01:47:50;5.16;66.50
70708;SHT30;58277;47.316;18.908;2023-03-01T01:50:16;5.12;66.48
70708;SHT30;58277;47.316;18.908;2023-03-01T01:52:40;5.05;66.99
70708;SHT30;58277;47.316;18.908;2023-03-01T01:55:07;4.91;67.40
70708;SHT30;58277;47.316;18.908;2023-03-01T01:57:36;4.93;67.46
70708;SHT30;58277;47.316;18.908;2023-03-01T02:00:07;4.93;67.76
70708;SHT30;58277;47.316;18.908;2023-03-01T02:02:39;4.84;68.00
70708;SHT30;58277;47.316;18.908;2023-03-01T02:08:06;4.87;69.06
70708;SHT30;58277;47.316;18.908;2023-03-01T02:10:33;4.81;70.31
70708;SHT30;58277;47.316;18.908;2023-03-01T02:12:57;4.82;70.63
70708;SHT30;58277;47.316;18.908;2023-03-01T02:15:20;4.87;70.66
70708;SHT30;58277;47.316;18.908;2023-03-01T02:17:43;4.77;70.35
70708;SHT30;58277;47.316;18.908;2023-03-01T02:22:44;4.74;71.92
70708;SHT30;58277;47.316;18.908;2023-03-01T02:30:15;4.74;71.66
70708;SHT30;58277;47.316;18.908;2023-03-01T02:32:41;4.92;71.58
70708;SHT30;58277;47.316;18.908;2023-03-01T02:35:04;4.87;71.79
70708;SHT30;58277;47.316;18.908;2023-03-01T02:37:28;4.89;72.10
70708;SHT30;58277;47.316;18.908;2023-03-01T02:39:58;4.85;71.79
70708;SHT30;58277;47.316;18.908;2023-03-01T02:42:28;4.77;71.92
70708;SHT30;58277;47.316;18.908;2023-03-01T02:44:52;4.84;72.42
70708;SHT30;58277;47.316;18.908;2023-03-01T02:47:16;4.74;72.63
70708;SHT30;58277;47.316;18.908;2023-03-01T02:49:39;4.82;72.11
70708;SHT30;58277;47.316;18.908;2023-03-01T02:57:28;4.77;71.91
70708;SHT30;58277;47.316;18.908;2023-03-01T02:59:52;4.70;71.77
70708;SHT30;58277;47.316;18.908;2023-03-01T03:02:24;4.89;71.93
70708;SHT30;58277;47.316;18.908;2023-03-01T03:05:19;5.08;70.98
70708;SHT30;58277;47.316;18.908;2023-03-01T03:07:46;4.99;70.78
70708;SHT30;58277;47.316;18.908;2023-03-01T03:10:19;5.18;70.47
70708;SHT30;58277;47.316;18.908;2023-03-01T03:12:43;5.05;70.68
70708;SHT30;58277;47.316;18.908;2023-03-01T03:15:07;4.95;70.97
70708;SHT30;58277;47.316;18.908;2023-03-01T03:17:31;5.00;70.88
70708;SHT30;58277;47.316;18.908;2023-03-01T03:19:54;4.98;71.12
70708;SHT30;58277;47.316;18.908;2023-03-01T03:22:17;4.98;70.75
70708;SHT30;58277;47.316;18.908;2023-03-01T03:24:40;4.91;70.71
70708;SHT30;58277;47.316;18.908;2023-03-01T03:27:03;4.95;70.63
70708;SHT30;58277;47.316;18.908;2023-03-01T03:29:25;4.98;70.73
70708;SHT30;58277;47.316;18.908;2023-03-01T03:31:48;4.95;70.75
70708;SHT30;58277;47.316;18.908;2023-03-01T03:34:11;4.95;71.02
70708;SHT30;58277;47.316;18.908;2023-03-01T03:36:40;5.04;70.88
70708;SHT30;58277;47.316;18.908;2023-03-01T03:39:03;4.96;70.70
70708;SHT30;58277;47.316;18.908;2023-03-01T03:41:27;4.93;71.17
70708;SHT30;58277;47.316;18.908;2023-03-01T03:43:50;4.89;71.05
70708;SHT30;58277;47.316;18.908;2023-03-01T03:46:13;4.91;70.33
70708;SHT30;58277;47.316;18.908;2023-03-01T03:48:39;4.93;71.04
70708;SHT30;58277;47.316;18.908;2023-03-01T03:51:02;4.85;70.96
70708;SHT30;58277;47.316;18.908;2023-03-01T03:53:28;4.93;70.52
70708;SHT30;58277;47.316;18.908;2023-03-01T03:55:52;4.99;70.70
70708;SHT30;58277;47.316;18.908;2023-03-01T03:58:15;4.93;70.37
70708;SHT30;58277;47.316;18.908;2023-03-01T04:00:44;4.87;71.24
70708;SHT30;58277;47.316;18.908;2023-03-01T04:03:08;4.75;70.94
70708;SHT30;58277;47.316;18.908;2023-03-01T04:05:31;4.78;71.27
70708;SHT30;58277;47.316;18.908;2023-03-01T04:07:54;4.84;70.95
70708;SHT30;58277;47.316;18.908;2023-03-01T04:10:23;4.78;71.23
70708;SHT30;58277;47.316;18.908;2023-03-01T04:12:46;4.82;71.35
70708;SHT30;58277;47.316;18.908;2023-03-01T04:15:11;4.78;71.58
70708;SHT30;58277;47.316;18.908;2023-03-01T04:17:36;4.72;71.38
70708;SHT30;58277;47.316;18.908;2023-03-01T04:20:01;4.79;71.48
70708;SHT30;58277;47.316;18.908;2023-03-01T04:22:28;4.89;70.97
70708;SHT30;58277;47.316;18.908;2023-03-01T04:24:52;4.79;70.74
70708;SHT30;58277;47.316;18.908;2023-03-01T04:27:14;4.77;70.47
70708;SHT30;58277;47.316;18.908;2023-03-01T04:29:37;4.77;70.52
70708;SHT30;58277;47.316;18.908;2023-03-01T04:32:00;4.77;70.66
70708;SHT30;58277;47.316;18.908;2023-03-01T04:34:23;4.79;70.42
70708;SHT30;58277;47.316;18.908;2023-03-01T04:36:46;4.82;69.92
70708;SHT30;58277;47.316;18.908;2023-03-01T04:39:08;4.79;70.08
70708;SHT30;58277;47.316;18.908;2023-03-01T04:41:34;4.71;70.10
70708;SHT30;58277;47.316;18.908;2023-03-01T04:43:57;4.68;70.51
70708;SHT30;58277;47.316;18.908;2023-03-01T04:46:22;4.65;70.75
70708;SHT30;58277;47.316;18.908;2023-03-01T04:48:45;4.67;70.14
70708;SHT30;58277;47.316;18.908;2023-03-01T04:51:10;4.74;70.07
70708;SHT30;58277;47.316;18.908;2023-03-01T04:53:36;4.61;69.94
70708;SHT30;58277;47.316;18.908;2023-03-01T04:55:59;4.64;69.46
70708;SHT30;58277;47.316;18.908;2023-03-01T04:58:26;4.57;69.58
70708;SHT30;58277;47.316;18.908;2023-03-01T05:00:49;4.58;69.80
70708;SHT30;58277;47.316;18.908;2023-03-01T05:03:12;4.64;69.74
70708;SHT30;58277;47.316;18.908;2023-03-01T05:05:36;4.72;69.45
70708;SHT30;58277;47.316;18.908;2023-03-01T05:08:01;4.74;69.29
70708;SHT30;58277;47.316;18.908;2023-03-01T05:10:28;4.72;69.31
70708;SHT30;58277;47.316;18.908;2023-03-01T05:12:55;4.74;68.94
70708;SHT30;58277;47.316;18.908;2023-03-01T05:15:19;4.75;69.15
70708;SHT30;58277;47.316;18.908;2023-03-01T05:17:44;4.67;69.52
70708;SHT30;58277;47.316;18.908;2023-03-01T05:20:09;4.77;69.43
70708;SHT30;58277;47.316;18.908;2023-03-01T05:22:36;4.74;69.37
70708;SHT30;58277;47.316;18.908;2023-03-01T05:24:58;4.67;69.23
70708;SHT30;58277;47.316;18.908;2023-03-01T05:27:21;4.58;69.80
70708;SHT30;58277;47.316;18.908;2023-03-01T05:30:05;4.60;69.68
70708;SHT30;58277;47.316;18.908;2023-03-01T05:32:50;4.65;69.87
70708;SHT30;58277;47.316;18.908;2023-03-01T05:35:18;4.68;69.61
70708;SHT30;58277;47.316;18.908;2023-03-01T05:37:49;4.78;69.18
70708;SHT30;58277;47.316;18.908;2023-03-01T05:40:16;4.65;69.45
70708;SHT30;58277;47.316;18.908;2023-03-01T05:43:06;4.71;69.61
70708;SHT30;58277;47.316;18.908;2023-03-01T05:45:29;4.77;69.51
70708;SHT30;58277;47.316;18.908;2023-03-01T05:47:53;4.82;69.40
70708;SHT30;58277;47.316;18.908;2023-03-01T05:50:27;4.88;69.11
70708;SHT30;58277;47.316;18.908;2023-03-01T05:52:57;4.92;68.78
70708;SHT30;58277;47.316;18.908;2023-03-01T05:55:21;4.92;68.47
70708;SHT30;58277;47.316;18.908;2023-03-01T05:57:43;4.95;68.54
70708;SHT30;58277;47.316;18.908;2023-03-01T06:00:09;5.04;68.74
70708;SHT30;58277;47.316;18.908;2023-03-01T06:02:37;5.06;68.45
70708;SHT30;58277;47.316;18.908;2023-03-01T06:05:00;5.08;68.05
70708;SHT30;58277;47.316;18.908;2023-03-01T06:07:23;5.00;68.41
70708;SHT30;58277;47.316;18.908;2023-03-01T06:09:46;5.09;68.17
70708;SHT30;58277;47.316;18.908;2023-03-01T06:12:09;5.20;68.02
70708;SHT30;58277;47.316;18.908;2023-03-01T06:14:35;5.37;67.59
70708;SHT30;58277;47.316;18.908;2023-03-01T06:16:57;5.36;67.54
70708;SHT30;58277;47.316;18.908;2023-03-01T06:19:20;5.36;67.13
70708;SHT30;58277;47.316;18.908;2023-03-01T06:21:43;5.40;67.44
70708;SHT30;58277;47.316;18.908;2023-03-01T06:24:06;5.26;67.77
70708;SHT30;58277;47.316;18.908;2023-03-01T06:26:29;5.19;67.86
70708;SHT30;58277;47.316;18.908;2023-03-01T06:28:53;5.32;67.98
70708;SHT30;58277;47.316;18.908;2023-03-01T06:31:16;5.48;67.43
70708;SHT30;58277;47.316;18.908;2023-03-01T06:33:38;5.48;67.09
70708;SHT30;58277;47.316;18.908;2023-03-01T06:36:03;5.40;67.28
70708;SHT30;58277;47.316;18.908;2023-03-01T06:38:26;5.32;67.51
70708;SHT30;58277;47.316;18.908;2023-03-01T06:40:53;5.29;68.04
70708;SHT30;58277;47.316;18.908;2023-03-01T06:43:17;5.42;67.31
70708;SHT30;58277;47.316;18.908;2023-03-01T06:45:40;5.58;66.93
70708;SHT30;58277;47.316;18.908;2023-03-01T06:48:06;5.79;66.76
70708;SHT30;58277;47.316;18.908;2023-03-01T06:50:30;5.63;66.39
70708;SHT30;58277;47.316;18.908;2023-03-01T06:52:57;5.63;66.40
70708;SHT30;58277;47.316;18.908;2023-03-01T06:55:20;5.67;65.80
70708;SHT30;58277;47.316;18.908;2023-03-01T06:57:43;5.77;65.15
70708;SHT30;58277;47.316;18.908;2023-03-01T07:00:11;5.58;65.28
70708;SHT30;58277;47.316;18.908;2023-03-01T07:02:38;5.37;65.90
70708;SHT30;58277;47.316;18.908;2023-03-01T07:05:02;5.29;65.45
70708;SHT30;58277;47.316;18.908;2023-03-01T07:07:25;5.30;65.81
70708;SHT30;58277;47.316;18.908;2023-03-01T07:09:49;5.43;65.44
70708;SHT30;58277;47.316;18.908;2023-03-01T07:12:12;5.51;65.77
70708;SHT30;58277;47.316;18.908;2023-03-01T07:17:45;5.54;64.77
70708;SHT30;58277;47.316;18.908;2023-03-01T07:20:11;5.74;64.48
70708;SHT30;58277;47.316;18.908;2023-03-01T07:22:40;5.65;63.96
70708;SHT30;58277;47.316;18.908;2023-03-01T07:25:08;5.71;63.94
70708;SHT30;58277;47.316;18.908;2023-03-01T07:27:35;5.81;63.39
70708;SHT30;58277;47.316;18.908;2023-03-01T07:29:58;5.92;63.54
70708;SHT30;58277;47.316;18.908;2023-03-01T07:32:22;5.92;63.12
70708;SHT30;58277;47.316;18.908;2023-03-01T07:34:44;5.77;63.91
70708;SHT30;58277;47.316;18.908;2023-03-01T07:37:07;5.97;63.57
70708;SHT30;58277;47.316;18.908;2023-03-01T07:39:30;6.05;63.04
70708;SHT30;58277;47.316;18.908;2023-03-01T07:41:53;6.13;62.77
70708;SHT30;58277;47.316;18.908;2023-03-01T07:47:58;6.12;62.81
70708;SHT30;58277;47.316;18.908;2023-03-01T07:50:22;6.30;62.40
70708;SHT30;58277;47.316;18.908;2023-03-01T07:52:50;6.12;62.63
70708;SHT30;58277;47.316;18.908;2023-03-01T07:55:15;6.47;61.88
70708;SHT30;58277;47.316;18.908;2023-03-01T07:57:38;6.51;61.58
70708;SHT30;58277;47.316;18.908;2023-03-01T08:00:02;6.47;61.53
70708;SHT30;58277;47.316;18.908;2023-03-01T08:02:38;6.34;61.39
70708;SHT30;58277;47.316;18.908;2023-03-01T08:05:03;6.32;61.84
70708;SHT30;58277;47.316;18.908;2023-03-01T08:07:26;6.37;61.56
70708;SHT30;58277;47.316;18.908;2023-03-01T08:09:52;6.16;61.58
70708;SHT30;58277;47.316;18.908;2023-03-01T08:12:15;6.21;61.71
70708;SHT30;58277;47.316;18.908;2023-03-01T08:14:39;6.19;60.65
70708;SHT30;58277;47.316;18.908;2023-03-01T08:17:02;6.01;61.39
70708;SHT30;58277;47.316;18.908;2023-03-01T08:19:26;6.05;61.85
70708;SHT30;58277;47.316;18.908;2023-03-01T08:21:50;6.22;61.75
70708;SHT30;58277;47.316;18.908;2023-03-01T08:24:13;6.33;60.94
70708;SHT30;58277;47.316;18.908;2023-03-01T08:26:36;6.50;60.49
70708;SHT30;58277;47.316;18.908;2023-03-01T08:29:00;6.58;60.36
70708;SHT30;58277;47.316;18.908;2023-03-01T08:31:30;6.84;59.93
70708;SHT30;58277;47.316;18.908;2023-03-01T08:33:56;6.64;59.61
70708;SHT30;58277;47.316;18.908;2023-03-01T08:36:19;6.70;60.16
70708;SHT30;58277;47.316;18.908;2023-03-01T08:38:43;6.83;59.97
70708;SHT30;58277;47.316;18.908;2023-03-01T08:41:06;6.76;59.64
70708;SHT30;58277;47.316;18.908;2023-03-01T08:43:29;6.98;59.60
70708;SHT30;58277;47.316;18.908;2023-03-01T08:45:53;7.15;58.62
70708;SHT30;58277;47.316;18.908;2023-03-01T08:48:16;7.40;58.22
70708;SHT30;58277;47.316;18.908;2023-03-01T08:50:39;7.62;58.23
70708;SHT30;58277;47.316;18.908;2023-03-01T08:53:07;7.59;57.31
70708;SHT30;58277;47.316;18.908;2023-03-01T08:56:17;7.28;58.23
70708;SHT30;58277;47.316;18.908;2023-03-01T08:58:45;7.62;57.64
70708;SHT30;58277;47.316;18.908;2023-03-01T09:01:11;7.62;57.75
70708;SHT30;58277;47.316;18.908;2023-03-01T09:03:35;7.57;57.52
70708;SHT30;58277;47.316;18.908;2023-03-01T09:06:03;7.87;56.86
70708;SHT30;58277;47.316;18.908;2023-03-01T09:08:26;7.62;57.36
70708;SHT30;58277;47.316;18.908;2023-03-01T09:10:49;7.57;57.30
70708;SHT30;58277;47.316;18.908;2023-03-01T09:13:12;7.90;56.58
70708;SHT30;58277;47.316;18.908;2023-03-01T09:15:37;8.48;56.12
70708;SHT30;58277;47.316;18.908;2023-03-01T09:18:00;8.32;55.02
70708;SHT30;58277;47.316;18.908;2023-03-01T09:20:23;8.63;54.35
70708;SHT30;58277;47.316;18.908;2023-03-01T09:22:46;8.54;54.51
70708;SHT30;58277;47.316;18.908;2023-03-01T09:25:09;8.14;55.78
70708;SHT30;58277;47.316;18.908;2023-03-01T09:27:32;8.39;55.41
70708;SHT30;58277;47.316;18.908;2023-03-01T09:29:55;8.12;55.63
70708;SHT30;58277;47.316;18.908;2023-03-01T09:32:18;8.36;55.68
70708;SHT30;58277;47.316;18.908;2023-03-01T09:34:42;8.45;54.91
70708;SHT30;58277;47.316;18.908;2023-03-01T09:37:23;8.76;54.28
70708;SHT30;58277;47.316;18.908;2023-03-01T09:39:48;8.66;54.55
70708;SHT30;58277;47.316;18.908;2023-03-01T09:42:11;9.12;54.21
70708;SHT30;58277;47.316;18.908;2023-03-01T09:47:15;9.29;53.11
70708;SHT30;58277;47.316;18.908;2023-03-01T09:49:43;9.60;52.46
70708;SHT30;58277;47.316;18.908;2023-03-01T09:52:32;9.75;51.93
70708;SHT30;58277;47.316;18.908;2023-03-01T09:54:57;9.72;52.23
70708;SHT30;58277;47.316;18.908;2023-03-01T09:57:45;9.70;51.76
70708;SHT30;58277;47.316;18.908;2023-03-01T10:02:48;9.79;51.92
70708;SHT30;58277;47.316;18.908;2023-03-01T10:05:38;9.76;51.86
70708;SHT30;58277;47.316;18.908;2023-03-01T10:12:38;9.28;53.47
70708;SHT30;58277;47.316;18.908;2023-03-01T10:24:15;9.27;53.91
70708;SHT30;58277;47.316;18.908;2023-03-01T10:26:51;9.69;52.52
70708;SHT30;58277;47.316;18.908;2023-03-01T10:29:16;9.83;52.98
70708;SHT30;58277;47.316;18.908;2023-03-01T10:31:46;10.01;52.31
70708;SHT30;58277;47.316;18.908;2023-03-01T10:34:30;9.91;52.65
70708;SHT30;58277;47.316;18.908;2023-03-01T10:36:57;10.05;51.86
70708;SHT30;58277;47.316;18.908;2023-03-01T10:39:23;10.46;50.98
70708;SHT30;58277;47.316;18.908;2023-03-01T10:47:01;10.84;50.71
70708;SHT30;58277;47.316;18.908;2023-03-01T10:49:24;10.96;49.92
70708;SHT30;58277;47.316;18.908;2023-03-01T10:51:51;10.96;49.93
70708;SHT30;58277;47.316;18.908;2023-03-01T10:54:31;10.77;50.51
70708;SHT30;58277;47.316;18.908;2023-03-01T10:56:57;11.01;50.24
70708;SHT30;58277;47.316;18.908;2023-03-01T11:05:00;11.37;49.05
70708;SHT30;58277;47.316;18.908;2023-03-01T11:07:24;10.97;50.01
70708;SHT30;58277;47.316;18.908;2023-03-01T11:09:48;11.06;50.10
70708;SHT30;58277;47.316;18.908;2023-03-01T11:12:15;11.13;49.68
70708;SHT30;58277;47.316;18.908;2023-03-01T11:14:49;11.17;49.94
70708;SHT30;58277;47.316;18.908;2023-03-01T11:17:18;10.86;50.44
70708;SHT30;58277;47.316;18.908;2023-03-01T11:19:59;10.38;51.59
70708;SHT30;58277;47.316;18.908;2023-03-01T11:22:26;10.52;50.90
70708;SHT30;58277;47.316;18.908;2023-03-01T11:24:51;10.65;51.33
70708;SHT30;58277;47.316;18.908;2023-03-01T11:27:33;11.01;50.27
70708;SHT30;58277;47.316;18.908;2023-03-01T11:30:12;11.26;49.46
70708;SHT30;58277;47.316;18.908;2023-03-01T11:32:43;11.35;49.04
70708;SHT30;58277;47.316;18.908;2023-03-01T11:35:26;11.41;48.78
70708;SHT30;58277;47.316;18.908;2023-03-01T11:37:59;11.51;48.94
70708;SHT30;58277;47.316;18.908;2023-03-01T11:40:29;11.26;48.98
70708;SHT30;58277;47.316;18.908;2023-03-01T11:45:25;10.92;50.05
70708;SHT30;58277;47.316;18.908;2023-03-01T11:50:43;11.16;49.40
70708;SHT30;58277;47.316;18.908;2023-03-01T12:05:28;11.83;48.21
70708;SHT30;58277;47.316;18.908;2023-03-01T12:08:27;11.74;48.15
70708;SHT30;58277;47.316;18.908;2023-03-01T12:19:21;11.93;47.51
70708;SHT30;58277;47.316;18.908;2023-03-01T12:29:52;11.58;47.75
70708;SHT30;58277;47.316;18.908;2023-03-01T12:35:22;11.55;48.00
70708;SHT30;58277;47.316;18.908;2023-03-01T12:37:59;11.62;47.71
70708;SHT30;58277;47.316;18.908;2023-03-01T12:46:33;11.68;48.98
70708;SHT30;58277;47.316;18.908;2023-03-01T12:51:31;11.85;48.70
70708;SHT30;58277;47.316;18.908;2023-03-01T12:53:57;12.07;48.60
70708;SHT30;58277;47.316;18.908;2023-03-01T12:56:22;12.21;48.29
70708;SHT30;58277;47.316;18.908;2023-03-01T12:59:13;12.34;47.88
70708;SHT30;58277;47.316;18.908;2023-03-01T13:02:20;12.41;47.00
70708;SHT30;58277;47.316;18.908;2023-03-01T13:07:51;12.62;46.85
70708;SHT30;58277;47.316;18.908;2023-03-01T13:17:49;12.40;48.26
70708;SHT30;58277;47.316;18.908;2023-03-01T13:20:18;12.38;47.62
70708;SHT30;58277;47.316;18.908;2023-03-01T13:22:45;12.13;48.48
70708;SHT30;58277;47.316;18.908;2023-03-01T13:25:19;12.14;48.49
70708;SHT30;58277;47.316;18.908;2023-03-01T13:27:42;12.34;47.86
70708;SHT30;58277;47.316;18.908;2023-03-01T13:30:44;12.17;48.79
70708;SHT30;58277;47.316;18.908;2023-03-01T13:35:50;12.00;49.44
70708;SHT30;58277;47.316;18.908;2023-03-01T13:38:37;11.83;50.07
70708;SHT30;58277;47.316;18.908;2023-03-01T13:41:00;11.89;50.17
70708;SHT30;58277;47.316;18.908;2023-03-01T13:43:37;11.72;50.37
70708;SHT30;58277;47.316;18.908;2023-03-01T13:46:07;11.61;50.89
70708;SHT30;58277;47.316;18.908;2023-03-01T13:48:31;11.82;50.38
70708;SHT30;58277;47.316;18.908;2023-03-01T13:51:13;11.65;50.52
70708;SHT30;58277;47.316;18.908;2023-03-01T13:53:44;11.79;50.16
70708;SHT30;58277;47.316;18.908;2023-03-01T13:56:20;11.64;50.60
70708;SHT30;58277;47.316;18.908;2023-03-01T13:59:12;11.50;50.41
70708;SHT30;58277;47.316;18.908;2023-03-01T14:01:37;11.51;50.45
70708;SHT30;58277;47.316;18.908;2023-03-01T14:04:01;11.58;50.52
70708;SHT30;58277;47.316;18.908;2023-03-01T14:06:27;11.52;51.44
70708;SHT30;58277;47.316;18.908;2023-03-01T14:09:02;11.54;50.83
70708;SHT30;58277;47.316;18.908;2023-03-01T14:19:45;11.26;51.70
70708;SHT30;58277;47.316;18.908;2023-03-01T14:22:27;11.34;51.76
70708;SHT30;58277;47.316;18.908;2023-03-01T14:24:54;11.26;52.20
70708;SHT30;58277;47.316;18.908;2023-03-01T14:27:18;11.03;52.83
70708;SHT30;58277;47.316;18.908;2023-03-01T14:29:42;11.28;52.62
70708;SHT30;58277;47.316;18.908;2023-03-01T14:34:35;11.32;52.81
70708;SHT30;58277;47.316;18.908;2023-03-01T14:37:31;11.16;52.75
70708;SHT30;58277;47.316;18.908;2023-03-01T14:39:54;11.04;53.42
70708;SHT30;58277;47.316;18.908;2023-03-01T14:42:18;10.99;53.26
70708;SHT30;58277;47.316;18.908;2023-03-01T14:44:43;11.07;53.19
70708;SHT30;58277;47.316;18.908;2023-03-01T14:47:12;10.99;53.52
70708;SHT30;58277;47.316;18.908;2023-03-01T14:49:37;10.93;53.52
70708;SHT30;58277;47.316;18.908;2023-03-01T14:52:02;11.10;53.47
70708;SHT30;58277;47.316;18.908;2023-03-01T14:57:03;11.26;52.93
70708;SHT30;58277;47.316;18.908;2023-03-01T14:59:27;11.00;53.65
70708;SHT30;58277;47.316;18.908;2023-03-01T15:01:55;10.92;54.04
70708;SHT30;58277;47.316;18.908;2023-03-01T15:04:19;10.81;54.40
70708;SHT30;58277;47.316;18.908;2023-03-01T15:06:43;10.75;54.38
70708;SHT30;58277;47.316;18.908;2023-03-01T15:09:12;10.69;54.81
70708;SHT30;58277;47.316;18.908;2023-03-01T15:11:36;10.52;55.52
70708;SHT30;58277;47.316;18.908;2023-03-01T15:14:25;10.49;55.77
70708;SHT30;58277;47.316;18.908;2023-03-01T15:16:48;10.58;55.66
70708;SHT30;58277;47.316;18.908;2023-03-01T15:19:17;10.42;55.74
70708;SHT30;58277;47.316;18.908;2023-03-01T15:21:44;10.42;55.78
70708;SHT30;58277;47.316;18.908;2023-03-01T15:26:42;10.31;56.59
70708;SHT30;58277;47.316;18.908;2023-03-01T15:29:15;10.24;56.94
70708;SHT30;58277;47.316;18.908;2023-03-01T15:31:39;10.30;56.64
70708;SHT30;58277;47.316;18.908;2023-03-01T15:34:32;10.44;56.26
70708;SHT30;58277;47.316;18.908;2023-03-01T15:37:02;10.51;55.94
70708;SHT30;58277;47.316;18.908;2023-03-01T15:42:00;10.18;56.79
70708;SHT30;58277;47.316;18.908;2023-03-01T15:44:30;10.04;57.18
70708;SHT30;58277;47.316;18.908;2023-03-01T15:47:20;9.87;57.66
70708;SHT30;58277;47.316;18.908;2023-03-01T15:49:46;9.89;57.80
70708;SHT30;58277;47.316;18.908;2023-03-01T15:54:51;9.98;58.14
70708;SHT30;58277;47.316;18.908;2023-03-01T15:57:14;9.87;58.89
70708;SHT30;58277;47.316;18.908;2023-03-01T15:59:37;9.76;59.11
70708;SHT30;58277;47.316;18.908;2023-03-01T16:02:00;9.87;58.85
70708;SHT30;58277;47.316;18.908;2023-03-01T16:04:24;9.89;58.62
70708;SHT30;58277;47.316;18.908;2023-03-01T16:06:47;9.84;58.94
70708;SHT30;58277;47.316;18.908;2023-03-01T16:09:16;9.84;58.89
70708;SHT30;58277;47.316;18.908;2023-03-01T16:11:40;9.67;59.19
70708;SHT30;58277;47.316;18.908;2023-03-01T16:14:04;9.60;59.66
70708;SHT30;58277;47.316;18.908;2023-03-01T16:16:27;9.53;60.06
70708;SHT30;58277;47.316;18.908;2023-03-01T16:18:52;9.40;60.30
70708;SHT30;58277;47.316;18.908;2023-03-01T16:21:24;9.34;60.58
70708;SHT30;58277;47.316;18.908;2023-03-01T16:23:47;9.32;60.84
70708;SHT30;58277;47.316;18.908;2023-03-01T16:26:10;9.17;61.07
70708;SHT30;58277;47.316;18.908;2023-03-01T16:28:33;9.14;61.31
70708;SHT30;58277;47.316;18.908;2023-03-01T16:30:55;9.07;62.14
70708;SHT30;58277;47.316;18.908;2023-03-01T16:33:18;9.00;61.83
70708;SHT30;58277;47.316;18.908;2023-03-01T16:35:55;8.94;61.73
70708;SHT30;58277;47.316;18.908;2023-03-01T16:38:18;8.88;61.95
70708;SHT30;58277;47.316;18.908;2023-03-01T16:40:47;8.79;62.57
70708;SHT30;58277;47.316;18.908;2023-03-01T16:43:09;8.67;62.78
70708;SHT30;58277;47.316;18.908;2023-03-01T16:45:34;8.41;64.53
70708;SHT30;58277;47.316;18.908;2023-03-01T16:48:03;8.45;64.47
70708;SHT30;58277;47.316;18.908;2023-03-01T16:50:27;8.42;64.34
70708;SHT30;58277;47.316;18.908;2023-03-01T16:52:50;8.46;63.94
70708;SHT30;58277;47.316;18.908;2023-03-01T16:55:13;8.48;63.90
70708;SHT30;58277;47.316;18.908;2023-03-01T16:57:38;8.45;63.94
70708;SHT30;58277;47.316;18.908;2023-03-01T17:00:06;8.38;63.65
70708;SHT30;58277;47.316;18.908;2023-03-01T17:02:36;8.38;63.81
70708;SHT30;58277;47.316;18.908;2023-03-01T17:04:59;8.36;64.11
70708;SHT30;58277;47.316;18.908;2023-03-01T17:07:22;8.39;64.23
70708;SHT30;58277;47.316;18.908;2023-03-01T17:09:45;8.22;64.58
70708;SHT30;58277;47.316;18.908;2023-03-01T17:12:09;8.16;65.04
70708;SHT30;58277;47.316;18.908;2023-03-01T17:14:34;8.12;65.30
70708;SHT30;58277;47.316;18.908;2023-03-01T17:16:57;7.95;65.83
70708;SHT30;58277;47.316;18.908;2023-03-01T17:19:22;7.84;66.20
70708;SHT30;58277;47.316;18.908;2023-03-01T17:21:45;7.77;66.43
70708;SHT30;58277;47.316;18.908;2023-03-01T17:24:08;7.70;66.62
70708;SHT30;58277;47.316;18.908;2023-03-01T17:26:30;7.66;66.69
70708;SHT30;58277;47.316;18.908;2023-03-01T17:28:54;7.64;66.42
70708;SHT30;58277;47.316;18.908;2023-03-01T17:31:18;7.60;66.88
70708;SHT30;58277;47.316;18.908;2023-03-01T17:33:41;7.53;67.22
70708;SHT30;58277;47.316;18.908;2023-03-01T17:36:04;7.49;67.37
70708;SHT30;58277;47.316;18.908;2023-03-01T17:38:27;7.45;67.65
70708;SHT30;58277;47.316;18.908;2023-03-01T17:40:50;7.40;67.23